sensor_id;sensor_type;location;lat;lon;timestamp;P1;durP1;ratioP1;P2;durP2;ratioP2
48613;SDS011;34408;51.426;5.444;2024-01-30T00:02:17;7.13;;;4.88;;
48613;SDS011;34408;51.426;5.444;2024-01-30T00:04:45;12.30;;;4.80;;
48613;SDS011;34408;51.426;5.444;2024-01-30T00:07:13;8.50;;;4.60;;
48613;SDS011;34408;51.426;5.444;2024-01-30T00:09:41;6.00;;;4.65;;
48613;SDS011;34408;51.426;5.444;2024-01-30T00:12:09;6.38;;;4.57;;
48613;SDS011;34408;51.426;5.444;2024-01-30T00:14:37;8.25;;;4.55;;
48613;SDS011;34408;51.426;5.444;2024-01-30T00:17:06;5.95;;;4.22;;
48613;SDS011;34408;51.426;5.444;2024-01-30T00:19:34;10.65;;;5.03;;
48613;SDS011;34408;51.426;5.444;2024-01-30T00:22:01;12.00;;;5.00;;
48613;SDS011;34408;51.426;5.444;2024-01-30T00:24:29;8.63;;;4.50;;
48613;SDS011;34408;51.426;5.444;2024-01-30T00:26:57;6.72;;;4.30;;
48613;SDS011;34408;51.426;5.444;2024-01-30T00:29:25;6.70;;;4.70;;
48613;SDS011;34408;51.426;5.444;2024-01-30T00:31:56;6.93;;;4.50;;
48613;SDS011;34408;51.426;5.444;2024-01-30T00:34:26;9.02;;;4.32;;
48613;SDS011;34408;51.426;5.444;2024-01-30T00:36:53;5.47;;;4.28;;
48613;SDS011;34408;51.426;5.444;2024-01-30T00:39:22;7.38;;;4.72;;
48613;SDS011;34408;51.426;5.444;2024-01-30T00:41:49;9.30;;;5.05;;
48613;SDS011;34408;51.426;5.444;2024-01-30T00:44:17;6.60;;;4.82;;
48613;SDS011;34408;51.426;5.444;2024-01-30T00:46:45;8.23;;;4.82;;
48613;SDS011;34408;51.426;5.444;2024-01-30T00:49:13;7.80;;;5.05;;
48613;SDS011;34408;51.426;5.444;2024-01-30T00:51:42;7.35;;;4.53;;
48613;SDS011;34408;51.426;5.444;2024-01-30T00:54:10;9.48;;;4.90;;
48613;SDS011;34408;51.426;5.444;2024-01-30T00:56:38;8.38;;;5.00;;
48613;SDS011;34408;51.426;5.444;2024-01-30T00:59:06;8.75;;;4.90;;
48613;SDS011;34408;51.426;5.444;2024-01-30T01:01:34;10.45;;;4.60;;
48613;SDS011;34408;51.426;5.444;2024-01-30T01:04:01;6.93;;;4.78;;
48613;SDS011;34408;51.426;5.444;2024-01-30T01:06:29;6.78;;;4.22;;
48613;SDS011;34408;51.426;5.444;2024-01-30T01:08:59;7.50;;;4.47;;
48613;SDS011;34408;51.426;5.444;2024-01-30T01:11:30;6.30;;;4.40;;
48613;SDS011;34408;51.426;5.444;2024-01-30T01:13:58;9.73;;;4.82;;
48613;SDS011;34408;51.426;5.444;2024-01-30T01:16:26;10.20;;;4.50;;
48613;SDS011;34408;51.426;5.444;2024-01-30T01:18:53;6.70;;;4.20;;
48613;SDS011;34408;51.426;5.444;2024-01-30T01:21:21;7.40;;;4.28;;
48613;SDS011;34408;51.426;5.444;2024-01-30T01:23:49;6.78;;;4.43;;
48613;SDS011;34408;51.426;5.444;2024-01-30T01:26:19;10.15;;;4.75;;
48613;SDS011;34408;51.426;5.444;2024-01-30T01:28:47;7.63;;;4.57;;
48613;SDS011;34408;51.426;5.444;2024-01-30T01:31:15;9.20;;;4.85;;
48613;SDS011;34408;51.426;5.444;2024-01-30T01:33:44;8.15;;;5.13;;
48613;SDS011;34408;51.426;5.444;2024-01-30T01:36:13;8.60;;;4.50;;
48613;SDS011;34408;51.426;5.444;2024-01-30T01:38:41;7.85;;;4.22;;
48613;SDS011;34408;51.426;5.444;2024-01-30T01:41:09;7.70;;;4.20;;
48613;SDS011;34408;51.426;5.444;2024-01-30T01:43:38;6.72;;;4.63;;
48613;SDS011;34408;51.426;5.444;2024-01-30T01:46:06;6.90;;;3.92;;
48613;SDS011;34408;51.426;5.444;2024-01-30T01:48:35;7.10;;;4.53;;
48613;SDS011;34408;51.426;5.444;2024-01-30T01:51:06;5.90;;;4.10;;
48613;SDS011;34408;51.426;5.444;2024-01-30T01:53:34;6.95;;;4.28;;
48613;SDS011;34408;51.426;5.444;2024-01-30T01:56:02;7.22;;;4.65;;
48613;SDS011;34408;51.426;5.444;2024-01-30T01:58:30;8.20;;;4.80;;
48613;SDS011;34408;51.426;5.444;2024-01-30T02:01:00;6.40;;;4.15;;
48613;SDS011;34408;51.426;5.444;2024-01-30T02:03:28;7.05;;;3.80;;
48613;SDS011;34408;51.426;5.444;2024-01-30T02:05:56;6.72;;;4.53;;
48613;SDS011;34408;51.426;5.444;2024-01-30T02:08:24;7.95;;;4.50;;
48613;SDS011;34408;51.426;5.444;2024-01-30T02:10:52;6.93;;;4.45;;
48613;SDS011;34408;51.426;5.444;2024-01-30T02:13:20;5.65;;;3.80;;
48613;SDS011;34408;51.426;5.444;2024-01-30T02:15:49;10.05;;;4.18;;
48613;SDS011;34408;51.426;5.444;2024-01-30T02:20:48;7.70;;;4.35;;
48613;SDS011;34408;51.426;5.444;2024-01-30T02:23:17;5.80;;;4.10;;
48613;SDS011;34408;51.426;5.444;2024-01-30T02:25:47;9.65;;;4.45;;
48613;SDS011;34408;51.426;5.444;2024-01-30T02:28:15;6.38;;;4.40;;
48613;SDS011;34408;51.426;5.444;2024-01-30T02:30:43;6.53;;;4.07;;
48613;SDS011;34408;51.426;5.444;2024-01-30T02:33:11;7.65;;;4.50;;
48613;SDS011;34408;51.426;5.444;2024-01-30T02:35:39;9.10;;;4.30;;
48613;SDS011;34408;51.426;5.444;2024-01-30T02:38:07;7.20;;;4.80;;
48613;SDS011;34408;51.426;5.444;2024-01-30T02:40:36;5.60;;;3.95;;
48613;SDS011;34408;51.426;5.444;2024-01-30T02:43:04;7.50;;;4.32;;
48613;SDS011;34408;51.426;5.444;2024-01-30T02:45:32;8.02;;;4.65;;
48613;SDS011;34408;51.426;5.444;2024-01-30T02:48:00;6.93;;;4.32;;
48613;SDS011;34408;51.426;5.444;2024-01-30T02:50:28;6.88;;;4.05;;
48613;SDS011;34408;51.426;5.444;2024-01-30T02:52:55;6.03;;;4.38;;
48613;SDS011;34408;51.426;5.444;2024-01-30T02:55:23;6.45;;;4.03;;
48613;SDS011;34408;51.426;5.444;2024-01-30T02:57:52;6.05;;;3.63;;
48613;SDS011;34408;51.426;5.444;2024-01-30T03:00:20;9.73;;;4.30;;
48613;SDS011;34408;51.426;5.444;2024-01-30T03:02:48;7.15;;;4.55;;
48613;SDS011;34408;51.426;5.444;2024-01-30T03:05:16;8.68;;;4.22;;
48613;SDS011;34408;51.426;5.444;2024-01-30T03:07:44;7.10;;;4.13;;
48613;SDS011;34408;51.426;5.444;2024-01-30T03:10:12;6.25;;;3.65;;
48613;SDS011;34408;51.426;5.444;2024-01-30T03:12:40;5.40;;;3.55;;
48613;SDS011;34408;51.426;5.444;2024-01-30T03:15:09;6.55;;;3.50;;
48613;SDS011;34408;51.426;5.444;2024-01-30T03:17:37;7.45;;;4.20;;
48613;SDS011;34408;51.426;5.444;2024-01-30T03:20:05;6.03;;;3.97;;
48613;SDS011;34408;51.426;5.444;2024-01-30T03:22:33;6.90;;;4.18;;
48613;SDS011;34408;51.426;5.444;2024-01-30T03:25:02;7.05;;;4.00;;
48613;SDS011;34408;51.426;5.444;2024-01-30T03:27:30;6.93;;;4.18;;
48613;SDS011;34408;51.426;5.444;2024-01-30T03:29:58;6.85;;;4.10;;
48613;SDS011;34408;51.426;5.444;2024-01-30T03:32:27;7.38;;;4.00;;
48613;SDS011;34408;51.426;5.444;2024-01-30T03:34:55;5.70;;;3.65;;
48613;SDS011;34408;51.426;5.444;2024-01-30T03:37:23;6.53;;;4.07;;
48613;SDS011;34408;51.426;5.444;2024-01-30T03:39:51;8.90;;;4.07;;
48613;SDS011;34408;51.426;5.444;2024-01-30T03:42:19;7.78;;;4.35;;
48613;SDS011;34408;51.426;5.444;2024-01-30T03:44:47;4.93;;;3.30;;
48613;SDS011;34408;51.426;5.444;2024-01-30T03:47:14;6.30;;;3.88;;
48613;SDS011;34408;51.426;5.444;2024-01-30T03:49:43;5.93;;;3.70;;
48613;SDS011;34408;51.426;5.444;2024-01-30T03:52:11;5.93;;;3.75;;
48613;SDS011;34408;51.426;5.444;2024-01-30T03:54:39;6.55;;;4.47;;
48613;SDS011;34408;51.426;5.444;2024-01-30T03:57:07;7.07;;;4.18;;
48613;SDS011;34408;51.426;5.444;2024-01-30T03:59:35;7.05;;;4.30;;
48613;SDS011;34408;51.426;5.444;2024-01-30T04:02:03;6.82;;;3.83;;
48613;SDS011;34408;51.426;5.444;2024-01-30T04:04:31;6.57;;;4.13;;
48613;SDS011;34408;51.426;5.444;2024-01-30T04:07:00;6.00;;;4.07;;
48613;SDS011;34408;51.426;5.444;2024-01-30T04:09:28;7.32;;;3.80;;
48613;SDS011;34408;51.426;5.444;2024-01-30T04:11:56;5.97;;;3.30;;
48613;SDS011;34408;51.426;5.444;2024-01-30T04:14:23;7.45;;;3.70;;
48613;SDS011;34408;51.426;5.444;2024-01-30T04:16:51;6.60;;;3.50;;
48613;SDS011;34408;51.426;5.444;2024-01-30T04:19:19;7.63;;;4.20;;
48613;SDS011;34408;51.426;5.444;2024-01-30T04:21:47;5.85;;;4.00;;
48613;SDS011;34408;51.426;5.444;2024-01-30T04:24:16;6.60;;;4.40;;
48613;SDS011;34408;51.426;5.444;2024-01-30T04:26:44;5.93;;;3.92;;
48613;SDS011;34408;51.426;5.444;2024-01-30T04:29:12;6.05;;;3.67;;
48613;SDS011;34408;51.426;5.444;2024-01-30T04:31:40;7.88;;;3.95;;
48613;SDS011;34408;51.426;5.444;2024-01-30T04:34:08;6.85;;;3.47;;
48613;SDS011;34408;51.426;5.444;2024-01-30T04:36:36;6.07;;;4.25;;
48613;SDS011;34408;51.426;5.444;2024-01-30T04:39:04;6.50;;;3.20;;
48613;SDS011;34408;51.426;5.444;2024-01-30T04:41:33;5.85;;;3.60;;
48613;SDS011;34408;51.426;5.444;2024-01-30T04:44:01;5.45;;;3.70;;
48613;SDS011;34408;51.426;5.444;2024-01-30T04:46:28;7.25;;;3.72;;
48613;SDS011;34408;51.426;5.444;2024-01-30T04:48:56;4.90;;;3.33;;
48613;SDS011;34408;51.426;5.444;2024-01-30T04:51:24;4.78;;;3.22;;
48613;SDS011;34408;51.426;5.444;2024-01-30T04:53:52;7.18;;;3.60;;
48613;SDS011;34408;51.426;5.444;2024-01-30T04:56:20;6.63;;;3.67;;
48613;SDS011;34408;51.426;5.444;2024-01-30T04:58:49;6.45;;;3.75;;
48613;SDS011;34408;51.426;5.444;2024-01-30T05:01:17;8.88;;;3.92;;
48613;SDS011;34408;51.426;5.444;2024-01-30T05:03:45;7.68;;;3.42;;
48613;SDS011;34408;51.426;5.444;2024-01-30T05:06:13;5.43;;;3.63;;
48613;SDS011;34408;51.426;5.444;2024-01-30T05:08:51;7.35;;;4.00;;
48613;SDS011;34408;51.426;5.444;2024-01-30T05:11:18;4.88;;;3.22;;
48613;SDS011;34408;51.426;5.444;2024-01-30T05:13:46;5.65;;;3.55;;
48613;SDS011;34408;51.426;5.444;2024-01-30T05:16:15;6.93;;;3.13;;
48613;SDS011;34408;51.426;5.444;2024-01-30T05:18:44;9.50;;;4.00;;
48613;SDS011;34408;51.426;5.444;2024-01-30T05:21:12;6.25;;;3.42;;
48613;SDS011;34408;51.426;5.444;2024-01-30T05:23:40;5.32;;;3.42;;
48613;SDS011;34408;51.426;5.444;2024-01-30T05:26:08;6.22;;;3.78;;
48613;SDS011;34408;51.426;5.444;2024-01-30T05:28:35;6.13;;;3.67;;
48613;SDS011;34408;51.426;5.444;2024-01-30T05:31:04;5.47;;;3.38;;
48613;SDS011;34408;51.426;5.444;2024-01-30T05:33:33;7.00;;;3.45;;
48613;SDS011;34408;51.426;5.444;2024-01-30T05:36:01;6.60;;;3.50;;
48613;SDS011;34408;51.426;5.444;2024-01-30T05:38:29;4.63;;;3.20;;
48613;SDS011;34408;51.426;5.444;2024-01-30T05:40:58;10.35;;;3.53;;
48613;SDS011;34408;51.426;5.444;2024-01-30T05:43:26;9.18;;;3.40;;
48613;SDS011;34408;51.426;5.444;2024-01-30T05:45:53;6.22;;;3.42;;
48613;SDS011;34408;51.426;5.444;2024-01-30T05:48:21;6.53;;;3.45;;
48613;SDS011;34408;51.426;5.444;2024-01-30T05:50:50;4.57;;;3.10;;
48613;SDS011;34408;51.426;5.444;2024-01-30T05:53:19;6.43;;;3.28;;
48613;SDS011;34408;51.426;5.444;2024-01-30T05:55:46;6.25;;;3.17;;
48613;SDS011;34408;51.426;5.444;2024-01-30T05:58:14;4.13;;;3.05;;
48613;SDS011;34408;51.426;5.444;2024-01-30T06:00:42;5.43;;;3.00;;
48613;SDS011;34408;51.426;5.444;2024-01-30T06:03:10;5.93;;;3.47;;
48613;SDS011;34408;51.426;5.444;2024-01-30T06:05:38;4.30;;;3.20;;
48613;SDS011;34408;51.426;5.444;2024-01-30T06:08:07;8.45;;;3.58;;
48613;SDS011;34408;51.426;5.444;2024-01-30T06:10:35;4.25;;;3.00;;
48613;SDS011;34408;51.426;5.444;2024-01-30T06:13:03;6.22;;;2.95;;
48613;SDS011;34408;51.426;5.444;2024-01-30T06:15:31;5.85;;;3.63;;
48613;SDS011;34408;51.426;5.444;2024-01-30T06:17:59;7.20;;;3.65;;
48613;SDS011;34408;51.426;5.444;2024-01-30T06:20:27;4.47;;;2.90;;
48613;SDS011;34408;51.426;5.444;2024-01-30T06:22:55;5.75;;;3.60;;
48613;SDS011;34408;51.426;5.444;2024-01-30T06:25:24;5.93;;;3.42;;
48613;SDS011;34408;51.426;5.444;2024-01-30T06:27:52;5.43;;;3.08;;
48613;SDS011;34408;51.426;5.444;2024-01-30T06:30:19;5.88;;;3.30;;
48613;SDS011;34408;51.426;5.444;2024-01-30T06:32:47;5.20;;;3.33;;
48613;SDS011;34408;51.426;5.444;2024-01-30T06:35:15;5.60;;;3.42;;
48613;SDS011;34408;51.426;5.444;2024-01-30T06:37:44;6.53;;;3.60;;
48613;SDS011;34408;51.426;5.444;2024-01-30T06:40:11;6.07;;;3.22;;
48613;SDS011;34408;51.426;5.444;2024-01-30T06:42:41;7.57;;;3.38;;
48613;SDS011;34408;51.426;5.444;2024-01-30T06:45:09;6.63;;;3.15;;
48613;SDS011;34408;51.426;5.444;2024-01-30T06:47:37;5.70;;;3.05;;
48613;SDS011;34408;51.426;5.444;2024-01-30T06:50:05;5.50;;;3.55;;
48613;SDS011;34408;51.426;5.444;2024-01-30T06:52:33;4.22;;;2.83;;
48613;SDS011;34408;51.426;5.444;2024-01-30T06:55:01;5.25;;;2.95;;
48613;SDS011;34408;51.426;5.444;2024-01-30T06:57:29;8.75;;;3.40;;
48613;SDS011;34408;51.426;5.444;2024-01-30T06:59:59;5.15;;;2.80;;
48613;SDS011;34408;51.426;5.444;2024-01-30T07:02:26;5.78;;;3.10;;
48613;SDS011;34408;51.426;5.444;2024-01-30T07:04:54;7.85;;;3.78;;
48613;SDS011;34408;51.426;5.444;2024-01-30T07:07:22;6.70;;;3.40;;
48613;SDS011;34408;51.426;5.444;2024-01-30T07:09:50;7.75;;;3.90;;
48613;SDS011;34408;51.426;5.444;2024-01-30T07:12:23;4.88;;;3.17;;
48613;SDS011;34408;51.426;5.444;2024-01-30T07:14:52;5.13;;;3.38;;
48613;SDS011;34408;51.426;5.444;2024-01-30T07:17:21;5.63;;;3.35;;
48613;SDS011;34408;51.426;5.444;2024-01-30T07:19:49;7.32;;;3.25;;
48613;SDS011;34408;51.426;5.444;2024-01-30T07:22:17;6.60;;;3.97;;
48613;SDS011;34408;51.426;5.444;2024-01-30T07:24:44;6.50;;;3.63;;
48613;SDS011;34408;51.426;5.444;2024-01-30T07:27:14;7.43;;;3.28;;
48613;SDS011;34408;51.426;5.444;2024-01-30T07:29:44;5.40;;;2.88;;
48613;SDS011;34408;51.426;5.444;2024-01-30T07:32:11;6.32;;;2.85;;
48613;SDS011;34408;51.426;5.444;2024-01-30T07:34:40;6.40;;;3.05;;
48613;SDS011;34408;51.426;5.444;2024-01-30T07:37:28;9.75;;;3.75;;
48613;SDS011;34408;51.426;5.444;2024-01-30T07:39:56;6.28;;;3.50;;
48613;SDS011;34408;51.426;5.444;2024-01-30T07:42:24;5.60;;;3.60;;
48613;SDS011;34408;51.426;5.444;2024-01-30T07:44:52;8.95;;;3.92;;
48613;SDS011;34408;51.426;5.444;2024-01-30T07:47:19;9.70;;;4.25;;
48613;SDS011;34408;51.426;5.444;2024-01-30T07:49:49;5.97;;;3.60;;
48613;SDS011;34408;51.426;5.444;2024-01-30T07:52:17;7.38;;;3.10;;
48613;SDS011;34408;51.426;5.444;2024-01-30T07:54:48;7.05;;;3.67;;
48613;SDS011;34408;51.426;5.444;2024-01-30T07:57:16;7.47;;;3.30;;
48613;SDS011;34408;51.426;5.444;2024-01-30T07:59:44;8.18;;;3.65;;
48613;SDS011;34408;51.426;5.444;2024-01-30T08:02:12;7.93;;;3.70;;
48613;SDS011;34408;51.426;5.444;2024-01-30T08:04:40;7.28;;;3.70;;
48613;SDS011;34408;51.426;5.444;2024-01-30T08:07:10;7.63;;;4.45;;
48613;SDS011;34408;51.426;5.444;2024-01-30T08:09:38;6.85;;;3.45;;
48613;SDS011;34408;51.426;5.444;2024-01-30T08:12:05;6.45;;;3.40;;
48613;SDS011;34408;51.426;5.444;2024-01-30T08:14:33;6.05;;;3.17;;
48613;SDS011;34408;51.426;5.444;2024-01-30T08:17:04;7.63;;;3.95;;
48613;SDS011;34408;51.426;5.444;2024-01-30T08:19:33;7.85;;;4.00;;
48613;SDS011;34408;51.426;5.444;2024-01-30T08:22:01;5.68;;;3.60;;
48613;SDS011;34408;51.426;5.444;2024-01-30T08:24:31;8.85;;;3.75;;
48613;SDS011;34408;51.426;5.444;2024-01-30T08:26:58;5.95;;;3.60;;
48613;SDS011;34408;51.426;5.444;2024-01-30T08:29:28;6.95;;;3.85;;
48613;SDS011;34408;51.426;5.444;2024-01-30T08:31:56;10.07;;;4.47;;
48613;SDS011;34408;51.426;5.444;2024-01-30T08:34:25;5.60;;;3.30;;
48613;SDS011;34408;51.426;5.444;2024-01-30T08:36:53;5.50;;;3.05;;
48613;SDS011;34408;51.426;5.444;2024-01-30T08:39:21;8.93;;;3.65;;
48613;SDS011;34408;51.426;5.444;2024-01-30T08:41:50;8.43;;;3.72;;
48613;SDS011;34408;51.426;5.444;2024-01-30T08:44:19;6.82;;;3.15;;
48613;SDS011;34408;51.426;5.444;2024-01-30T08:46:46;6.32;;;3.38;;
48613;SDS011;34408;51.426;5.444;2024-01-30T08:49:16;6.20;;;3.50;;
48613;SDS011;34408;51.426;5.444;2024-01-30T08:51:44;6.45;;;3.25;;
48613;SDS011;34408;51.426;5.444;2024-01-30T08:54:13;5.22;;;3.63;;
48613;SDS011;34408;51.426;5.444;2024-01-30T08:56:40;5.60;;;3.30;;
48613;SDS011;34408;51.426;5.444;2024-01-30T08:59:10;6.70;;;3.03;;
48613;SDS011;34408;51.426;5.444;2024-01-30T09:01:39;7.40;;;3.08;;
48613;SDS011;34408;51.426;5.444;2024-01-30T09:04:20;6.75;;;3.25;;
48613;SDS011;34408;51.426;5.444;2024-01-30T09:06:51;6.10;;;3.33;;
48613;SDS011;34408;51.426;5.444;2024-01-30T09:09:19;5.47;;;3.60;;
48613;SDS011;34408;51.426;5.444;2024-01-30T09:11:47;8.38;;;3.60;;
48613;SDS011;34408;51.426;5.444;2024-01-30T09:14:16;6.22;;;4.30;;
48613;SDS011;34408;51.426;5.444;2024-01-30T09:16:44;7.57;;;4.28;;
48613;SDS011;34408;51.426;5.444;2024-01-30T09:19:12;8.73;;;3.63;;
48613;SDS011;34408;51.426;5.444;2024-01-30T09:21:40;7.40;;;3.42;;
48613;SDS011;34408;51.426;5.444;2024-01-30T09:24:07;6.90;;;3.25;;
48613;SDS011;34408;51.426;5.444;2024-01-30T09:26:35;6.00;;;3.17;;
48613;SDS011;34408;51.426;5.444;2024-01-30T09:29:03;5.72;;;3.10;;
48613;SDS011;34408;51.426;5.444;2024-01-30T09:31:32;5.90;;;3.08;;
48613;SDS011;34408;51.426;5.444;2024-01-30T09:34:00;6.25;;;3.85;;
48613;SDS011;34408;51.426;5.444;2024-01-30T09:36:28;4.80;;;2.90;;
48613;SDS011;34408;51.426;5.444;2024-01-30T09:38:56;6.43;;;3.20;;
48613;SDS011;34408;51.426;5.444;2024-01-30T09:41:24;7.13;;;3.13;;
48613;SDS011;34408;51.426;5.444;2024-01-30T09:43:52;6.57;;;3.00;;
48613;SDS011;34408;51.426;5.444;2024-01-30T09:46:25;5.05;;;3.05;;
48613;SDS011;34408;51.426;5.444;2024-01-30T09:48:56;6.78;;;3.95;;
48613;SDS011;34408;51.426;5.444;2024-01-30T09:51:25;5.70;;;3.50;;
48613;SDS011;34408;51.426;5.444;2024-01-30T09:53:55;5.22;;;2.80;;
48613;SDS011;34408;51.426;5.444;2024-01-30T09:56:24;6.68;;;3.45;;
48613;SDS011;34408;51.426;5.444;2024-01-30T09:58:52;6.53;;;3.25;;
48613;SDS011;34408;51.426;5.444;2024-01-30T10:01:20;6.90;;;3.50;;
48613;SDS011;34408;51.426;5.444;2024-01-30T10:03:50;5.22;;;3.33;;
48613;SDS011;34408;51.426;5.444;2024-01-30T10:06:20;12.35;;;3.67;;
48613;SDS011;34408;51.426;5.444;2024-01-30T10:08:50;7.95;;;2.97;;
48613;SDS011;34408;51.426;5.444;2024-01-30T10:11:18;5.60;;;2.90;;
48613;SDS011;34408;51.426;5.444;2024-01-30T10:13:46;6.13;;;3.40;;
48613;SDS011;34408;51.426;5.444;2024-01-30T10:16:13;6.90;;;3.33;;
48613;SDS011;34408;51.426;5.444;2024-01-30T10:18:43;4.93;;;3.00;;
48613;SDS011;34408;51.426;5.444;2024-01-30T10:21:11;6.90;;;3.20;;
48613;SDS011;34408;51.426;5.444;2024-01-30T10:23:41;6.80;;;3.53;;
48613;SDS011;34408;51.426;5.444;2024-01-30T10:26:10;10.43;;;3.83;;
48613;SDS011;34408;51.426;5.444;2024-01-30T10:28:39;8.38;;;3.97;;
48613;SDS011;34408;51.426;5.444;2024-01-30T10:31:07;6.40;;;3.40;;
48613;SDS011;34408;51.426;5.444;2024-01-30T10:33:35;7.25;;;3.20;;
48613;SDS011;34408;51.426;5.444;2024-01-30T10:36:04;6.63;;;3.40;;
48613;SDS011;34408;51.426;5.444;2024-01-30T10:38:32;7.03;;;3.50;;
48613;SDS011;34408;51.426;5.444;2024-01-30T10:41:02;9.82;;;3.95;;
48613;SDS011;34408;51.426;5.444;2024-01-30T10:43:31;9.52;;;4.00;;
48613;SDS011;34408;51.426;5.444;2024-01-30T10:46:04;7.10;;;3.78;;
48613;SDS011;34408;51.426;5.444;2024-01-30T10:48:40;9.00;;;3.90;;
48613;SDS011;34408;51.426;5.444;2024-01-30T10:51:11;9.40;;;4.07;;
48613;SDS011;34408;51.426;5.444;2024-01-30T10:53:40;7.60;;;4.30;;
48613;SDS011;34408;51.426;5.444;2024-01-30T10:56:10;9.13;;;4.60;;
48613;SDS011;34408;51.426;5.444;2024-01-30T10:58:39;12.55;;;4.75;;
48613;SDS011;34408;51.426;5.444;2024-01-30T11:01:07;8.43;;;3.75;;
48613;SDS011;34408;51.426;5.444;2024-01-30T11:03:35;6.18;;;3.38;;
48613;SDS011;34408;51.426;5.444;2024-01-30T11:06:03;8.63;;;3.50;;
48613;SDS011;34408;51.426;5.444;2024-01-30T11:08:32;7.45;;;3.95;;
48613;SDS011;34408;51.426;5.444;2024-01-30T11:11:00;5.95;;;3.60;;
48613;SDS011;34408;51.426;5.444;2024-01-30T11:13:30;5.38;;;3.40;;
48613;SDS011;34408;51.426;5.444;2024-01-30T11:16:02;6.80;;;4.15;;
48613;SDS011;34408;51.426;5.444;2024-01-30T11:18:31;10.85;;;3.97;;
48613;SDS011;34408;51.426;5.444;2024-01-30T11:21:00;7.63;;;3.50;;
48613;SDS011;34408;51.426;5.444;2024-01-30T11:23:28;6.43;;;3.75;;
48613;SDS011;34408;51.426;5.444;2024-01-30T11:25:56;8.05;;;4.25;;
48613;SDS011;34408;51.426;5.444;2024-01-30T11:28:24;7.60;;;3.85;;
48613;SDS011;34408;51.426;5.444;2024-01-30T11:31:04;7.22;;;4.22;;
48613;SDS011;34408;51.426;5.444;2024-01-30T11:33:34;10.32;;;4.63;;
48613;SDS011;34408;51.426;5.444;2024-01-30T11:36:03;11.23;;;5.05;;
48613;SDS011;34408;51.426;5.444;2024-01-30T11:38:33;10.60;;;4.30;;
48613;SDS011;34408;51.426;5.444;2024-01-30T11:41:01;7.55;;;4.47;;
48613;SDS011;34408;51.426;5.444;2024-01-30T11:43:30;8.18;;;4.78;;
48613;SDS011;34408;51.426;5.444;2024-01-30T11:46:01;10.18;;;4.53;;
48613;SDS011;34408;51.426;5.444;2024-01-30T11:48:29;9.98;;;4.75;;
48613;SDS011;34408;51.426;5.444;2024-01-30T11:50:57;8.60;;;4.43;;
48613;SDS011;34408;51.426;5.444;2024-01-30T11:53:25;9.15;;;3.88;;
48613;SDS011;34408;51.426;5.444;2024-01-30T11:55:53;13.27;;;4.47;;
48613;SDS011;34408;51.426;5.444;2024-01-30T11:58:24;10.48;;;5.20;;
48613;SDS011;34408;51.426;5.444;2024-01-30T12:00:52;11.00;;;6.03;;
48613;SDS011;34408;51.426;5.444;2024-01-30T12:03:23;11.15;;;4.53;;
48613;SDS011;34408;51.426;5.444;2024-01-30T12:05:55;7.28;;;4.05;;
48613;SDS011;34408;51.426;5.444;2024-01-30T12:08:24;9.10;;;4.18;;
48613;SDS011;34408;51.426;5.444;2024-01-30T12:10:55;11.27;;;4.53;;
48613;SDS011;34408;51.426;5.444;2024-01-30T12:13:24;7.63;;;4.10;;
48613;SDS011;34408;51.426;5.444;2024-01-30T12:15:57;11.45;;;4.25;;
48613;SDS011;34408;51.426;5.444;2024-01-30T12:18:26;12.18;;;5.43;;
48613;SDS011;34408;51.426;5.444;2024-01-30T12:20:57;9.20;;;4.18;;
48613;SDS011;34408;51.426;5.444;2024-01-30T12:23:26;11.13;;;4.32;;
48613;SDS011;34408;51.426;5.444;2024-01-30T12:25:54;9.98;;;4.80;;
48613;SDS011;34408;51.426;5.444;2024-01-30T12:28:22;12.70;;;4.40;;
48613;SDS011;34408;51.426;5.444;2024-01-30T12:30:50;7.38;;;4.00;;
48613;SDS011;34408;51.426;5.444;2024-01-30T12:33:21;10.57;;;3.75;;
48613;SDS011;34408;51.426;5.444;2024-01-30T12:35:54;13.23;;;3.92;;
48613;SDS011;34408;51.426;5.444;2024-01-30T12:38:29;11.65;;;4.47;;
48613;SDS011;34408;51.426;5.444;2024-01-30T12:40:57;5.90;;;3.75;;
48613;SDS011;34408;51.426;5.444;2024-01-30T12:43:25;8.82;;;3.53;;
48613;SDS011;34408;51.426;5.444;2024-01-30T12:46:04;9.00;;;3.38;;
48613;SDS011;34408;51.426;5.444;2024-01-30T12:48:33;7.47;;;3.15;;
48613;SDS011;34408;51.426;5.444;2024-01-30T12:51:02;6.35;;;2.85;;
48613;SDS011;34408;51.426;5.444;2024-01-30T12:53:30;6.28;;;2.72;;
48613;SDS011;34408;51.426;5.444;2024-01-30T12:55:59;8.25;;;2.70;;
48613;SDS011;34408;51.426;5.444;2024-01-30T12:58:26;6.80;;;3.33;;
48613;SDS011;34408;51.426;5.444;2024-01-30T13:00:54;4.07;;;2.15;;
48613;SDS011;34408;51.426;5.444;2024-01-30T13:03:24;7.53;;;2.40;;
48613;SDS011;34408;51.426;5.444;2024-01-30T13:05:52;4.80;;;2.00;;
48613;SDS011;34408;51.426;5.444;2024-01-30T13:08:21;3.83;;;1.98;;
48613;SDS011;34408;51.426;5.444;2024-01-30T13:10:49;4.97;;;1.30;;
48613;SDS011;34408;51.426;5.444;2024-01-30T13:13:17;5.97;;;1.42;;
48613;SDS011;34408;51.426;5.444;2024-01-30T13:15:46;4.88;;;1.50;;
48613;SDS011;34408;51.426;5.444;2024-01-30T13:18:14;3.70;;;1.35;;
48613;SDS011;34408;51.426;5.444;2024-01-30T13:20:43;4.47;;;1.40;;
48613;SDS011;34408;51.426;5.444;2024-01-30T13:23:10;4.45;;;1.60;;
48613;SDS011;34408;51.426;5.444;2024-01-30T13:25:39;2.40;;;1.10;;
48613;SDS011;34408;51.426;5.444;2024-01-30T13:28:07;3.72;;;0.98;;
48613;SDS011;34408;51.426;5.444;2024-01-30T13:30:35;3.22;;;1.50;;
48613;SDS011;34408;51.426;5.444;2024-01-30T13:33:03;4.35;;;1.17;;
48613;SDS011;34408;51.426;5.444;2024-01-30T13:35:32;1.98;;;1.00;;
48613;SDS011;34408;51.426;5.444;2024-01-30T13:37:59;1.85;;;0.80;;
48613;SDS011;34408;51.426;5.444;2024-01-30T13:40:28;1.88;;;1.00;;
48613;SDS011;34408;51.426;5.444;2024-01-30T13:42:57;3.22;;;0.90;;
48613;SDS011;34408;51.426;5.444;2024-01-30T13:45:25;4.10;;;0.98;;
48613;SDS011;34408;51.426;5.444;2024-01-30T13:47:52;2.95;;;1.40;;
48613;SDS011;34408;51.426;5.444;2024-01-30T13:50:21;6.20;;;1.42;;
48613;SDS011;34408;51.426;5.444;2024-01-30T13:52:49;4.45;;;1.15;;
48613;SDS011;34408;51.426;5.444;2024-01-30T13:55:18;5.65;;;1.25;;
48613;SDS011;34408;51.426;5.444;2024-01-30T13:57:46;3.53;;;1.05;;
48613;SDS011;34408;51.426;5.444;2024-01-30T14:00:18;4.53;;;0.85;;
48613;SDS011;34408;51.426;5.444;2024-01-30T14:02:48;4.05;;;0.75;;
48613;SDS011;34408;51.426;5.444;2024-01-30T14:05:16;2.00;;;1.10;;
48613;SDS011;34408;51.426;5.444;2024-01-30T14:07:45;4.45;;;1.50;;
48613;SDS011;34408;51.426;5.444;2024-01-30T14:10:13;4.70;;;1.73;;
48613;SDS011;34408;51.426;5.444;2024-01-30T14:12:42;2.45;;;1.00;;
48613;SDS011;34408;51.426;5.444;2024-01-30T14:15:11;4.10;;;1.17;;
48613;SDS011;34408;51.426;5.444;2024-01-30T14:17:55;3.30;;;1.00;;
48613;SDS011;34408;51.426;5.444;2024-01-30T14:20:24;2.80;;;1.00;;
48613;SDS011;34408;51.426;5.444;2024-01-30T14:22:52;9.18;;;1.50;;
48613;SDS011;34408;51.426;5.444;2024-01-30T14:25:22;4.03;;;1.13;;
48613;SDS011;34408;51.426;5.444;2024-01-30T14:27:50;4.72;;;1.20;;
48613;SDS011;34408;51.426;5.444;2024-01-30T14:30:18;3.08;;;0.82;;
48613;SDS011;34408;51.426;5.444;2024-01-30T14:32:46;3.20;;;0.93;;
48613;SDS011;34408;51.426;5.444;2024-01-30T14:35:16;6.40;;;1.85;;
48613;SDS011;34408;51.426;5.444;2024-01-30T14:37:46;2.10;;;0.93;;
48613;SDS011;34408;51.426;5.444;2024-01-30T14:40:13;3.50;;;1.25;;
48613;SDS011;34408;51.426;5.444;2024-01-30T14:42:41;5.13;;;1.80;;
48613;SDS011;34408;51.426;5.444;2024-01-30T14:45:09;3.10;;;1.10;;
48613;SDS011;34408;51.426;5.444;2024-01-30T14:47:38;7.13;;;1.63;;
48613;SDS011;34408;51.426;5.444;2024-01-30T14:50:07;11.77;;;2.08;;
48613;SDS011;34408;51.426;5.444;2024-01-30T14:52:37;8.10;;;1.85;;
48613;SDS011;34408;51.426;5.444;2024-01-30T14:55:07;3.08;;;1.13;;
48613;SDS011;34408;51.426;5.444;2024-01-30T14:57:35;6.93;;;1.58;;